sensor_id;sensor_type;location;lat;lon;timestamp;P1;durP1;ratioP1;P2;durP2;ratioP2
64907;SDS011;69061;52.236;5.188;2023-05-10T00:01:38;47.83;;;27.52;;
64907;SDS011;69061;52.236;5.188;2023-05-10T00:04:05;51.95;;;30.40;;
64907;SDS011;69061;52.236;5.188;2023-05-10T00:06:32;53.40;;;30.35;;
64907;SDS011;69061;52.236;5.188;2023-05-10T00:09:00;49.55;;;27.25;;
64907;SDS011;69061;52.236;5.188;2023-05-10T00:11:27;55.30;;;31.67;;
64907;SDS011;69061;52.236;5.188;2023-05-10T00:13:53;50.65;;;30.75;;
64907;SDS011;69061;52.236;5.188;2023-05-10T00:16:20;51.10;;;29.98;;
64907;SDS011;69061;52.236;5.188;2023-05-10T00:18:47;48.90;;;28.90;;
64907;SDS011;69061;52.236;5.188;2023-05-10T00:21:13;52.03;;;30.95;;
64907;SDS011;69061;52.236;5.188;2023-05-10T00:23:40;51.97;;;29.27;;
64907;SDS011;69061;52.236;5.188;2023-05-10T00:26:08;53.65;;;31.88;;
64907;SDS011;69061;52.236;5.188;2023-05-10T00:28:34;46.47;;;25.88;;
64907;SDS011;69061;52.236;5.188;2023-05-10T00:31:01;57.15;;;30.58;;
64907;SDS011;69061;52.236;5.188;2023-05-10T00:33:27;51.20;;;28.83;;
64907;SDS011;69061;52.236;5.188;2023-05-10T00:35:54;49.72;;;28.90;;
64907;SDS011;69061;52.236;5.188;2023-05-10T00:38:20;43.90;;;25.73;;
64907;SDS011;69061;52.236;5.188;2023-05-10T00:40:47;49.13;;;29.98;;
64907;SDS011;69061;52.236;5.188;2023-05-10T00:43:15;55.15;;;31.92;;
64907;SDS011;69061;52.236;5.188;2023-05-10T00:45:41;50.97;;;29.88;;
64907;SDS011;69061;52.236;5.188;2023-05-10T00:48:08;51.15;;;30.48;;
64907;SDS011;69061;52.236;5.188;2023-05-10T00:50:35;58.13;;;33.38;;
64907;SDS011;69061;52.236;5.188;2023-05-10T00:53:01;52.10;;;31.80;;
64907;SDS011;69061;52.236;5.188;2023-05-10T00:55:28;61.45;;;32.65;;
64907;SDS011;69061;52.236;5.188;2023-05-10T00:57:56;47.13;;;28.42;;
64907;SDS011;69061;52.236;5.188;2023-05-10T01:00:23;52.30;;;31.17;;
64907;SDS011;69061;52.236;5.188;2023-05-10T01:02:50;57.78;;;33.00;;
64907;SDS011;69061;52.236;5.188;2023-05-10T01:05:19;58.00;;;33.33;;
64907;SDS011;69061;52.236;5.188;2023-05-10T01:07:45;57.67;;;31.58;;
64907;SDS011;69061;52.236;5.188;2023-05-10T01:10:13;55.15;;;32.97;;
64907;SDS011;69061;52.236;5.188;2023-05-10T01:12:40;57.97;;;35.15;;
64907;SDS011;69061;52.236;5.188;2023-05-10T01:15:08;52.53;;;31.83;;
64907;SDS011;69061;52.236;5.188;2023-05-10T01:17:39;52.97;;;32.90;;
64907;SDS011;69061;52.236;5.188;2023-05-10T01:20:08;55.33;;;33.85;;
64907;SDS011;69061;52.236;5.188;2023-05-10T01:22:44;55.00;;;33.63;;
64907;SDS011;69061;52.236;5.188;2023-05-10T01:25:29;55.90;;;34.03;;
64907;SDS011;69061;52.236;5.188;2023-05-10T01:28:14;52.10;;;31.02;;
64907;SDS011;69061;52.236;5.188;2023-05-10T01:31:03;56.58;;;33.63;;
64907;SDS011;69061;52.236;5.188;2023-05-10T01:33:40;56.95;;;34.85;;
64907;SDS011;69061;52.236;5.188;2023-05-10T01:36:13;50.22;;;31.38;;
64907;SDS011;69061;52.236;5.188;2023-05-10T01:38:51;51.60;;;31.45;;
64907;SDS011;69061;52.236;5.188;2023-05-10T01:41:25;51.55;;;33.20;;
64907;SDS011;69061;52.236;5.188;2023-05-10T01:44:02;51.38;;;32.35;;
64907;SDS011;69061;52.236;5.188;2023-05-10T01:46:36;52.60;;;33.15;;
64907;SDS011;69061;52.236;5.188;2023-05-10T01:49:08;55.38;;;33.97;;
64907;SDS011;69061;52.236;5.188;2023-05-10T01:51:38;57.53;;;35.40;;
64907;SDS011;69061;52.236;5.188;2023-05-10T01:54:08;55.50;;;34.58;;
64907;SDS011;69061;52.236;5.188;2023-05-10T01:56:35;60.60;;;36.92;;
64907;SDS011;69061;52.236;5.188;2023-05-10T01:59:05;64.68;;;37.03;;
64907;SDS011;69061;52.236;5.188;2023-05-10T02:01:37;62.30;;;37.42;;
64907;SDS011;69061;52.236;5.188;2023-05-10T02:04:06;63.50;;;37.35;;
64907;SDS011;69061;52.236;5.188;2023-05-10T02:06:35;60.25;;;36.92;;
64907;SDS011;69061;52.236;5.188;2023-05-10T02:09:05;64.15;;;38.40;;
64907;SDS011;69061;52.236;5.188;2023-05-10T02:11:33;56.58;;;33.55;;
64907;SDS011;69061;52.236;5.188;2023-05-10T02:13:59;62.72;;;35.13;;
64907;SDS011;69061;52.236;5.188;2023-05-10T02:16:27;63.05;;;37.30;;
64907;SDS011;69061;52.236;5.188;2023-05-10T02:18:55;68.40;;;38.10;;
64907;SDS011;69061;52.236;5.188;2023-05-10T02:21:26;58.50;;;34.35;;
64907;SDS011;69061;52.236;5.188;2023-05-10T02:23:54;63.92;;;37.35;;
64907;SDS011;69061;52.236;5.188;2023-05-10T02:26:22;68.18;;;39.42;;
64907;SDS011;69061;52.236;5.188;2023-05-10T02:28:50;69.20;;;39.08;;
64907;SDS011;69061;52.236;5.188;2023-05-10T02:31:19;63.58;;;36.33;;
64907;SDS011;69061;52.236;5.188;2023-05-10T02:33:47;63.83;;;35.47;;
64907;SDS011;69061;52.236;5.188;2023-05-10T02:36:15;60.60;;;36.17;;
64907;SDS011;69061;52.236;5.188;2023-05-10T02:38:44;62.08;;;34.20;;
64907;SDS011;69061;52.236;5.188;2023-05-10T02:41:13;60.78;;;34.03;;
64907;SDS011;69061;52.236;5.188;2023-05-10T02:43:40;63.63;;;36.60;;
64907;SDS011;69061;52.236;5.188;2023-05-10T02:46:09;53.75;;;31.20;;
64907;SDS011;69061;52.236;5.188;2023-05-10T02:48:35;60.53;;;36.53;;
64907;SDS011;69061;52.236;5.188;2023-05-10T02:51:04;60.30;;;36.40;;
64907;SDS011;69061;52.236;5.188;2023-05-10T02:53:34;64.25;;;36.85;;
64907;SDS011;69061;52.236;5.188;2023-05-10T02:56:06;64.85;;;38.33;;
64907;SDS011;69061;52.236;5.188;2023-05-10T02:58:38;64.97;;;37.72;;
64907;SDS011;69061;52.236;5.188;2023-05-10T03:01:05;64.95;;;39.40;;
64907;SDS011;69061;52.236;5.188;2023-05-10T03:03:32;60.15;;;34.65;;
64907;SDS011;69061;52.236;5.188;2023-05-10T03:05:59;70.32;;;38.17;;
64907;SDS011;69061;52.236;5.188;2023-05-10T03:08:25;65.38;;;38.67;;
64907;SDS011;69061;52.236;5.188;2023-05-10T03:10:55;66.20;;;39.55;;
64907;SDS011;69061;52.236;5.188;2023-05-10T03:13:38;55.40;;;33.95;;
64907;SDS011;69061;52.236;5.188;2023-05-10T03:16:12;65.32;;;39.30;;
64907;SDS011;69061;52.236;5.188;2023-05-10T03:18:42;72.38;;;41.55;;
64907;SDS011;69061;52.236;5.188;2023-05-10T03:21:11;78.43;;;38.50;;
64907;SDS011;69061;52.236;5.188;2023-05-10T03:23:40;76.38;;;38.70;;
64907;SDS011;69061;52.236;5.188;2023-05-10T03:26:10;74.75;;;39.53;;
64907;SDS011;69061;52.236;5.188;2023-05-10T03:28:44;82.93;;;39.50;;
64907;SDS011;69061;52.236;5.188;2023-05-10T03:31:14;80.50;;;40.80;;
64907;SDS011;69061;52.236;5.188;2023-05-10T03:33:47;79.63;;;41.33;;
64907;SDS011;69061;52.236;5.188;2023-05-10T03:36:14;75.35;;;37.78;;
64907;SDS011;69061;52.236;5.188;2023-05-10T03:38:41;79.05;;;38.13;;
64907;SDS011;69061;52.236;5.188;2023-05-10T03:41:07;79.22;;;36.83;;
64907;SDS011;69061;52.236;5.188;2023-05-10T03:43:34;72.10;;;35.72;;
64907;SDS011;69061;52.236;5.188;2023-05-10T03:46:03;74.38;;;37.28;;
64907;SDS011;69061;52.236;5.188;2023-05-10T03:48:31;64.63;;;31.17;;
64907;SDS011;69061;52.236;5.188;2023-05-10T03:50:58;60.67;;;30.33;;
64907;SDS011;69061;52.236;5.188;2023-05-10T03:53:25;70.72;;;33.10;;
64907;SDS011;69061;52.236;5.188;2023-05-10T03:55:51;72.22;;;34.05;;
64907;SDS011;69061;52.236;5.188;2023-05-10T03:58:18;77.82;;;34.40;;
64907;SDS011;69061;52.236;5.188;2023-05-10T04:00:44;74.45;;;33.85;;
64907;SDS011;69061;52.236;5.188;2023-05-10T04:03:12;69.43;;;34.22;;
64907;SDS011;69061;52.236;5.188;2023-05-10T04:05:40;70.30;;;31.23;;
64907;SDS011;69061;52.236;5.188;2023-05-10T04:08:06;57.85;;;28.05;;
64907;SDS011;69061;52.236;5.188;2023-05-10T04:10:33;62.47;;;30.25;;
64907;SDS011;69061;52.236;5.188;2023-05-10T04:13:00;68.53;;;33.42;;
64907;SDS011;69061;52.236;5.188;2023-05-10T04:15:26;77.60;;;33.13;;
64907;SDS011;69061;52.236;5.188;2023-05-10T04:17:53;77.30;;;34.03;;
64907;SDS011;69061;52.236;5.188;2023-05-10T04:20:21;76.65;;;34.47;;
64907;SDS011;69061;52.236;5.188;2023-05-10T04:22:47;91.22;;;37.50;;
64907;SDS011;69061;52.236;5.188;2023-05-10T04:25:14;80.53;;;36.55;;
64907;SDS011;69061;52.236;5.188;2023-05-10T04:27:42;68.78;;;32.08;;
64907;SDS011;69061;52.236;5.188;2023-05-10T04:30:08;76.00;;;31.35;;
64907;SDS011;69061;52.236;5.188;2023-05-10T04:32:35;73.40;;;32.97;;
64907;SDS011;69061;52.236;5.188;2023-05-10T04:35:02;72.65;;;33.05;;
64907;SDS011;69061;52.236;5.188;2023-05-10T04:37:31;68.65;;;31.30;;
64907;SDS011;69061;52.236;5.188;2023-05-10T04:39:57;72.30;;;33.83;;
64907;SDS011;69061;52.236;5.188;2023-05-10T04:42:24;74.35;;;32.65;;
64907;SDS011;69061;52.236;5.188;2023-05-10T04:44:51;75.38;;;35.15;;
64907;SDS011;69061;52.236;5.188;2023-05-10T04:47:18;74.40;;;34.72;;
64907;SDS011;69061;52.236;5.188;2023-05-10T04:49:44;72.40;;;33.10;;
64907;SDS011;69061;52.236;5.188;2023-05-10T04:52:11;71.13;;;32.05;;
64907;SDS011;69061;52.236;5.188;2023-05-10T04:54:40;63.42;;;30.17;;
64907;SDS011;69061;52.236;5.188;2023-05-10T04:57:06;66.10;;;32.65;;
64907;SDS011;69061;52.236;5.188;2023-05-10T04:59:35;75.57;;;33.83;;
64907;SDS011;69061;52.236;5.188;2023-05-10T05:02:01;59.03;;;32.25;;
64907;SDS011;69061;52.236;5.188;2023-05-10T05:04:29;54.05;;;29.25;;
64907;SDS011;69061;52.236;5.188;2023-05-10T05:06:56;59.53;;;30.23;;
64907;SDS011;69061;52.236;5.188;2023-05-10T05:09:22;48.97;;;26.33;;
64907;SDS011;69061;52.236;5.188;2023-05-10T05:11:50;46.72;;;27.08;;
64907;SDS011;69061;52.236;5.188;2023-05-10T05:14:17;55.20;;;30.08;;
64907;SDS011;69061;52.236;5.188;2023-05-10T05:16:45;55.95;;;29.95;;
64907;SDS011;69061;52.236;5.188;2023-05-10T05:19:12;45.17;;;25.83;;
64907;SDS011;69061;52.236;5.188;2023-05-10T05:21:38;49.15;;;25.40;;
64907;SDS011;69061;52.236;5.188;2023-05-10T05:24:06;45.22;;;24.77;;
64907;SDS011;69061;52.236;5.188;2023-05-10T05:26:32;42.90;;;22.90;;
64907;SDS011;69061;52.236;5.188;2023-05-10T05:29:00;35.53;;;19.50;;
64907;SDS011;69061;52.236;5.188;2023-05-10T05:31:27;38.15;;;20.38;;
64907;SDS011;69061;52.236;5.188;2023-05-10T05:33:53;37.40;;;18.80;;
64907;SDS011;69061;52.236;5.188;2023-05-10T05:36:20;38.85;;;20.08;;
64907;SDS011;69061;52.236;5.188;2023-05-10T05:38:47;34.80;;;19.02;;
64907;SDS011;69061;52.236;5.188;2023-05-10T05:41:13;32.70;;;18.30;;
64907;SDS011;69061;52.236;5.188;2023-05-10T05:43:40;35.28;;;19.40;;
64907;SDS011;69061;52.236;5.188;2023-05-10T05:46:08;39.05;;;19.40;;
64907;SDS011;69061;52.236;5.188;2023-05-10T05:48:34;36.35;;;20.45;;
64907;SDS011;69061;52.236;5.188;2023-05-10T05:51:01;33.85;;;20.20;;
64907;SDS011;69061;52.236;5.188;2023-05-10T05:53:27;33.05;;;18.00;;
64907;SDS011;69061;52.236;5.188;2023-05-10T05:55:54;41.15;;;20.42;;
64907;SDS011;69061;52.236;5.188;2023-05-10T05:58:22;37.50;;;19.42;;
64907;SDS011;69061;52.236;5.188;2023-05-10T06:00:49;33.70;;;17.92;;
64907;SDS011;69061;52.236;5.188;2023-05-10T06:03:18;36.90;;;18.55;;
64907;SDS011;69061;52.236;5.188;2023-05-10T06:05:44;32.35;;;18.40;;
64907;SDS011;69061;52.236;5.188;2023-05-10T06:08:11;33.58;;;16.52;;
64907;SDS011;69061;52.236;5.188;2023-05-10T06:10:38;32.22;;;16.95;;
64907;SDS011;69061;52.236;5.188;2023-05-10T06:13:04;28.73;;;16.00;;
64907;SDS011;69061;52.236;5.188;2023-05-10T06:15:31;35.22;;;19.15;;
64907;SDS011;69061;52.236;5.188;2023-05-10T06:17:57;31.65;;;16.92;;
64907;SDS011;69061;52.236;5.188;2023-05-10T06:20:25;37.28;;;20.52;;
64907;SDS011;69061;52.236;5.188;2023-05-10T06:22:52;38.78;;;18.17;;
64907;SDS011;69061;52.236;5.188;2023-05-10T06:25:18;35.83;;;19.17;;
64907;SDS011;69061;52.236;5.188;2023-05-10T06:27:45;42.70;;;20.58;;
64907;SDS011;69061;52.236;5.188;2023-05-10T06:30:12;35.90;;;20.40;;
64907;SDS011;69061;52.236;5.188;2023-05-10T06:32:40;38.83;;;17.85;;
64907;SDS011;69061;52.236;5.188;2023-05-10T06:35:08;40.05;;;18.85;;
64907;SDS011;69061;52.236;5.188;2023-05-10T06:37:36;39.72;;;19.65;;
64907;SDS011;69061;52.236;5.188;2023-05-10T06:40:03;31.00;;;16.98;;
64907;SDS011;69061;52.236;5.188;2023-05-10T06:42:31;34.80;;;16.45;;
64907;SDS011;69061;52.236;5.188;2023-05-10T06:44:57;40.53;;;20.30;;
64907;SDS011;69061;52.236;5.188;2023-05-10T06:47:24;45.42;;;22.75;;
64907;SDS011;69061;52.236;5.188;2023-05-10T06:49:50;37.30;;;19.15;;
64907;SDS011;69061;52.236;5.188;2023-05-10T06:52:17;33.83;;;17.95;;
64907;SDS011;69061;52.236;5.188;2023-05-10T06:54:45;32.55;;;16.15;;
64907;SDS011;69061;52.236;5.188;2023-05-10T06:57:11;36.78;;;19.95;;
64907;SDS011;69061;52.236;5.188;2023-05-10T06:59:38;33.20;;;17.40;;
64907;SDS011;69061;52.236;5.188;2023-05-10T07:02:05;28.20;;;15.90;;
64907;SDS011;69061;52.236;5.188;2023-05-10T07:04:31;37.17;;;19.17;;
64907;SDS011;69061;52.236;5.188;2023-05-10T07:06:58;29.50;;;16.95;;
64907;SDS011;69061;52.236;5.188;2023-05-10T07:09:24;32.17;;;15.15;;
64907;SDS011;69061;52.236;5.188;2023-05-10T07:11:52;26.10;;;14.45;;
64907;SDS011;69061;52.236;5.188;2023-05-10T07:14:19;34.38;;;18.30;;
64907;SDS011;69061;52.236;5.188;2023-05-10T07:16:45;34.85;;;18.10;;
64907;SDS011;69061;52.236;5.188;2023-05-10T07:19:12;29.17;;;15.30;;
64907;SDS011;69061;52.236;5.188;2023-05-10T07:21:39;29.63;;;15.77;;
64907;SDS011;69061;52.236;5.188;2023-05-10T07:24:08;26.70;;;16.10;;
64907;SDS011;69061;52.236;5.188;2023-05-10T07:26:34;29.67;;;16.52;;
64907;SDS011;69061;52.236;5.188;2023-05-10T07:29:02;29.27;;;16.60;;
64907;SDS011;69061;52.236;5.188;2023-05-10T07:31:29;29.65;;;17.35;;
64907;SDS011;69061;52.236;5.188;2023-05-10T07:33:55;29.30;;;16.48;;
64907;SDS011;69061;52.236;5.188;2023-05-10T07:36:21;29.73;;;16.30;;
64907;SDS011;69061;52.236;5.188;2023-05-10T07:38:48;26.00;;;16.17;;
64907;SDS011;69061;52.236;5.188;2023-05-10T07:41:15;27.05;;;16.23;;
64907;SDS011;69061;52.236;5.188;2023-05-10T07:43:42;22.92;;;15.15;;
64907;SDS011;69061;52.236;5.188;2023-05-10T07:46:10;30.70;;;16.85;;
64907;SDS011;69061;52.236;5.188;2023-05-10T07:48:36;27.48;;;16.77;;
64907;SDS011;69061;52.236;5.188;2023-05-10T07:51:03;27.52;;;16.80;;
64907;SDS011;69061;52.236;5.188;2023-05-10T07:53:31;27.77;;;17.13;;
64907;SDS011;69061;52.236;5.188;2023-05-10T07:55:57;24.08;;;15.65;;
64907;SDS011;69061;52.236;5.188;2023-05-10T07:58:24;27.05;;;16.63;;
64907;SDS011;69061;52.236;5.188;2023-05-10T08:00:51;30.42;;;17.85;;
64907;SDS011;69061;52.236;5.188;2023-05-10T08:03:19;26.88;;;17.08;;
64907;SDS011;69061;52.236;5.188;2023-05-10T08:05:46;27.20;;;17.83;;
64907;SDS011;69061;52.236;5.188;2023-05-10T08:08:12;26.73;;;16.45;;
64907;SDS011;69061;52.236;5.188;2023-05-10T08:10:39;30.65;;;16.33;;
64907;SDS011;69061;52.236;5.188;2023-05-10T08:13:05;26.23;;;16.30;;
64907;SDS011;69061;52.236;5.188;2023-05-10T08:15:32;28.35;;;17.20;;
64907;SDS011;69061;52.236;5.188;2023-05-10T08:17:58;24.35;;;17.05;;
64907;SDS011;69061;52.236;5.188;2023-05-10T08:20:26;26.48;;;16.50;;
64907;SDS011;69061;52.236;5.188;2023-05-10T08:22:53;23.38;;;14.70;;
64907;SDS011;69061;52.236;5.188;2023-05-10T08:25:20;27.48;;;15.10;;
64907;SDS011;69061;52.236;5.188;2023-05-10T08:27:46;22.50;;;13.68;;
64907;SDS011;69061;52.236;5.188;2023-05-10T08:30:13;22.23;;;14.02;;
64907;SDS011;69061;52.236;5.188;2023-05-10T08:32:39;21.73;;;14.38;;
64907;SDS011;69061;52.236;5.188;2023-05-10T08:35:06;21.85;;;13.60;;
64907;SDS011;69061;52.236;5.188;2023-05-10T08:37:34;18.15;;;11.75;;
64907;SDS011;69061;52.236;5.188;2023-05-10T08:40:01;22.08;;;13.32;;
64907;SDS011;69061;52.236;5.188;2023-05-10T08:42:28;18.00;;;12.68;;
64907;SDS011;69061;52.236;5.188;2023-05-10T08:44:59;20.58;;;12.68;;
64907;SDS011;69061;52.236;5.188;2023-05-10T08:47:27;16.02;;;11.60;;
64907;SDS011;69061;52.236;5.188;2023-05-10T08:49:53;25.38;;;12.38;;
64907;SDS011;69061;52.236;5.188;2023-05-10T08:52:21;17.98;;;12.48;;
64907;SDS011;69061;52.236;5.188;2023-05-10T08:54:53;18.85;;;12.85;;
64907;SDS011;69061;52.236;5.188;2023-05-10T08:57:19;19.42;;;12.15;;
64907;SDS011;69061;52.236;5.188;2023-05-10T08:59:46;25.65;;;13.30;;
64907;SDS011;69061;52.236;5.188;2023-05-10T09:02:13;17.02;;;11.75;;
64907;SDS011;69061;52.236;5.188;2023-05-10T09:04:40;19.33;;;11.20;;
64907;SDS011;69061;52.236;5.188;2023-05-10T09:07:06;19.95;;;13.02;;
64907;SDS011;69061;52.236;5.188;2023-05-10T09:09:33;18.08;;;12.13;;
64907;SDS011;69061;52.236;5.188;2023-05-10T09:12:02;21.40;;;11.88;;
64907;SDS011;69061;52.236;5.188;2023-05-10T09:14:29;19.80;;;12.25;;
64907;SDS011;69061;52.236;5.188;2023-05-10T09:16:59;18.20;;;10.68;;
64907;SDS011;69061;52.236;5.188;2023-05-10T09:19:25;17.50;;;11.98;;
64907;SDS011;69061;52.236;5.188;2023-05-10T09:21:53;20.40;;;12.52;;
64907;SDS011;69061;52.236;5.188;2023-05-10T09:24:20;22.65;;;12.27;;
64907;SDS011;69061;52.236;5.188;2023-05-10T09:26:51;18.67;;;11.63;;
64907;SDS011;69061;52.236;5.188;2023-05-10T09:29:20;20.10;;;12.45;;
64907;SDS011;69061;52.236;5.188;2023-05-10T09:31:47;19.63;;;12.00;;
64907;SDS011;69061;52.236;5.188;2023-05-10T09:34:16;19.55;;;12.00;;
64907;SDS011;69061;52.236;5.188;2023-05-10T09:36:51;18.05;;;11.55;;
64907;SDS011;69061;52.236;5.188;2023-05-10T09:39:20;15.80;;;10.55;;
64907;SDS011;69061;52.236;5.188;2023-05-10T09:41:47;17.20;;;11.07;;
64907;SDS011;69061;52.236;5.188;2023-05-10T09:44:16;16.05;;;10.20;;
64907;SDS011;69061;52.236;5.188;2023-05-10T09:46:49;15.52;;;10.18;;
64907;SDS011;69061;52.236;5.188;2023-05-10T09:49:17;16.38;;;10.23;;
64907;SDS011;69061;52.236;5.188;2023-05-10T09:51:44;16.67;;;10.50;;
64907;SDS011;69061;52.236;5.188;2023-05-10T09:54:11;16.58;;;9.77;;
64907;SDS011;69061;52.236;5.188;2023-05-10T09:56:39;15.48;;;9.05;;
64907;SDS011;69061;52.236;5.188;2023-05-10T09:59:06;16.05;;;10.20;;
64907;SDS011;69061;52.236;5.188;2023-05-10T10:01:33;13.90;;;9.20;;
64907;SDS011;69061;52.236;5.188;2023-05-10T10:04:03;15.02;;;8.98;;
64907;SDS011;69061;52.236;5.188;2023-05-10T10:06:34;15.00;;;8.50;;
64907;SDS011;69061;52.236;5.188;2023-05-10T10:09:01;11.98;;;8.23;;
64907;SDS011;69061;52.236;5.188;2023-05-10T10:11:28;14.70;;;8.18;;
64907;SDS011;69061;52.236;5.188;2023-05-10T10:13:55;13.07;;;7.88;;
64907;SDS011;69061;52.236;5.188;2023-05-10T10:16:21;11.50;;;7.30;;
64907;SDS011;69061;52.236;5.188;2023-05-10T10:18:49;15.27;;;8.18;;
64907;SDS011;69061;52.236;5.188;2023-05-10T10:21:17;10.40;;;7.75;;
64907;SDS011;69061;52.236;5.188;2023-05-10T10:23:45;11.68;;;8.10;;
64907;SDS011;69061;52.236;5.188;2023-05-10T10:26:12;11.05;;;7.10;;
64907;SDS011;69061;52.236;5.188;2023-05-10T10:28:41;11.07;;;7.15;;
64907;SDS011;69061;52.236;5.188;2023-05-10T10:31:18;9.43;;;6.40;;
64907;SDS011;69061;52.236;5.188;2023-05-10T10:33:55;8.63;;;6.32;;
64907;SDS011;69061;52.236;5.188;2023-05-10T10:38:57;13.63;;;6.70;;
64907;SDS011;69061;52.236;5.188;2023-05-10T10:41:31;9.20;;;6.57;;
64907;SDS011;69061;52.236;5.188;2023-05-10T10:46:58;9.75;;;6.13;;
64907;SDS011;69061;52.236;5.188;2023-05-10T10:49:25;11.18;;;5.65;;
64907;SDS011;69061;52.236;5.188;2023-05-10T10:54:49;10.88;;;6.60;;
64907;SDS011;69061;52.236;5.188;2023-05-10T10:57:17;10.88;;;5.35;;
64907;SDS011;69061;52.236;5.188;2023-05-10T10:59:46;9.10;;;6.22;;
64907;SDS011;69061;52.236;5.188;2023-05-10T11:02:32;9.50;;;5.68;;
64907;SDS011;69061;52.236;5.188;2023-05-10T11:05:00;10.93;;;6.18;;
64907;SDS011;69061;52.236;5.188;2023-05-10T11:07:54;8.55;;;6.25;;
64907;SDS011;69061;52.236;5.188;2023-05-10T11:10:23;11.77;;;6.57;;
64907;SDS011;69061;52.236;5.188;2023-05-10T11:12:51;9.23;;;6.00;;
64907;SDS011;69061;52.236;5.188;2023-05-10T11:15:19;8.90;;;5.85;;
64907;SDS011;69061;52.236;5.188;2023-05-10T11:17:47;12.85;;;6.90;;
64907;SDS011;69061;52.236;5.188;2023-05-10T11:20:17;9.73;;;6.47;;
64907;SDS011;69061;52.236;5.188;2023-05-10T11:22:51;10.45;;;6.72;;
64907;SDS011;69061;52.236;5.188;2023-05-10T11:25:19;9.98;;;7.03;;
64907;SDS011;69061;52.236;5.188;2023-05-10T11:27:47;12.13;;;7.07;;
64907;SDS011;69061;52.236;5.188;2023-05-10T11:30:14;11.63;;;6.80;;
64907;SDS011;69061;52.236;5.188;2023-05-10T11:32:41;12.25;;;6.80;;
64907;SDS011;69061;52.236;5.188;2023-05-10T11:35:08;10.70;;;6.40;;
64907;SDS011;69061;52.236;5.188;2023-05-10T11:37:35;12.73;;;6.95;;
64907;SDS011;69061;52.236;5.188;2023-05-10T11:40:02;14.18;;;6.45;;
64907;SDS011;69061;52.236;5.188;2023-05-10T11:42:30;14.63;;;7.28;;
64907;SDS011;69061;52.236;5.188;2023-05-10T11:44:57;8.88;;;6.45;;
64907;SDS011;69061;52.236;5.188;2023-05-10T11:47:23;11.40;;;5.78;;
64907;SDS011;69061;52.236;5.188;2023-05-10T11:49:50;9.15;;;6.13;;
64907;SDS011;69061;52.236;5.188;2023-05-10T11:52:18;10.45;;;5.35;;
64907;SDS011;69061;52.236;5.188;2023-05-10T11:54:45;10.70;;;5.70;;
64907;SDS011;69061;52.236;5.188;2023-05-10T11:57:17;8.02;;;5.57;;
64907;SDS011;69061;52.236;5.188;2023-05-10T11:59:46;8.30;;;5.70;;
64907;SDS011;69061;52.236;5.188;2023-05-10T12:02:12;10.32;;;6.03;;
64907;SDS011;69061;52.236;5.188;2023-05-10T12:04:39;9.20;;;5.93;;
64907;SDS011;69061;52.236;5.188;2023-05-10T12:07:07;10.80;;;6.32;;
64907;SDS011;69061;52.236;5.188;2023-05-10T12:09:33;9.98;;;5.55;;
64907;SDS011;69061;52.236;5.188;2023-05-10T12:12:00;8.85;;;6.18;;
64907;SDS011;69061;52.236;5.188;2023-05-10T12:14:28;13.43;;;6.75;;
64907;SDS011;69061;52.236;5.188;2023-05-10T12:16:59;10.45;;;6.32;;
64907;SDS011;69061;52.236;5.188;2023-05-10T12:19:26;10.15;;;5.93;;
64907;SDS011;69061;52.236;5.188;2023-05-10T12:21:52;11.65;;;7.05;;
64907;SDS011;69061;52.236;5.188;2023-05-10T12:24:20;10.00;;;5.70;;
64907;SDS011;69061;52.236;5.188;2023-05-10T12:26:49;12.35;;;6.53;;
64907;SDS011;69061;52.236;5.188;2023-05-10T12:29:17;9.38;;;5.88;;
64907;SDS011;69061;52.236;5.188;2023-05-10T12:31:51;11.65;;;6.32;;
64907;SDS011;69061;52.236;5.188;2023-05-10T12:34:23;8.88;;;5.60;;
64907;SDS011;69061;52.236;5.188;2023-05-10T12:36:51;11.85;;;7.55;;
64907;SDS011;69061;52.236;5.188;2023-05-10T12:39:18;10.75;;;6.43;;
64907;SDS011;69061;52.236;5.188;2023-05-10T12:41:45;9.02;;;6.53;;
64907;SDS011;69061;52.236;5.188;2023-05-10T12:44:11;12.63;;;7.35;;
64907;SDS011;69061;52.236;5.188;2023-05-10T12:46:38;10.45;;;7.18;;
64907;SDS011;69061;52.236;5.188;2023-05-10T12:49:04;11.13;;;6.88;;
64907;SDS011;69061;52.236;5.188;2023-05-10T12:51:32;12.77;;;7.13;;
64907;SDS011;69061;52.236;5.188;2023-05-10T12:53:59;13.80;;;6.90;;
64907;SDS011;69061;52.236;5.188;2023-05-10T12:56:26;12.27;;;6.68;;
64907;SDS011;69061;52.236;5.188;2023-05-10T12:58:52;9.18;;;6.22;;
64907;SDS011;69061;52.236;5.188;2023-05-10T13:01:19;8.88;;;6.00;;
64907;SDS011;69061;52.236;5.188;2023-05-10T13:03:45;9.15;;;6.03;;
64907;SDS011;69061;52.236;5.188;2023-05-10T13:06:12;10.38;;;6.30;;
64907;SDS011;69061;52.236;5.188;2023-05-10T13:08:40;13.25;;;7.75;;
64907;SDS011;69061;52.236;5.188;2023-05-10T13:11:07;12.45;;;9.07;;
64907;SDS011;69061;52.236;5.188;2023-05-10T13:13:34;12.82;;;9.25;;
64907;SDS011;69061;52.236;5.188;2023-05-10T13:16:00;13.13;;;8.32;;
64907;SDS011;69061;52.236;5.188;2023-05-10T13:18:27;19.27;;;10.00;;
64907;SDS011;69061;52.236;5.188;2023-05-10T13:20:53;18.52;;;11.00;;
64907;SDS011;69061;52.236;5.188;2023-05-10T13:23:20;20.08;;;12.15;;
64907;SDS011;69061;52.236;5.188;2023-05-10T13:25:50;20.30;;;12.63;;
64907;SDS011;69061;52.236;5.188;2023-05-10T13:28:17;25.73;;;14.35;;
64907;SDS011;69061;52.236;5.188;2023-05-10T13:30:44;21.63;;;12.55;;
64907;SDS011;69061;52.236;5.188;2023-05-10T13:33:10;22.70;;;12.43;;
64907;SDS011;69061;52.236;5.188;2023-05-10T13:35:37;21.25;;;12.57;;
64907;SDS011;69061;52.236;5.188;2023-05-10T13:38:03;21.90;;;12.30;;
64907;SDS011;69061;52.236;5.188;2023-05-10T13:40:32;21.25;;;12.30;;
64907;SDS011;69061;52.236;5.188;2023-05-10T13:43:00;22.40;;;12.13;;
64907;SDS011;69061;52.236;5.188;2023-05-10T13:45:27;22.05;;;12.32;;
64907;SDS011;69061;52.236;5.188;2023-05-10T13:47:53;25.90;;;12.60;;
64907;SDS011;69061;52.236;5.188;2023-05-10T13:50:20;20.10;;;11.15;;
64907;SDS011;69061;52.236;5.188;2023-05-10T13:52:46;25.80;;;13.77;;
64907;SDS011;69061;52.236;5.188;2023-05-10T13:55:13;23.50;;;12.25;;
64907;SDS011;69061;52.236;5.188;2023-05-10T13:57:40;21.02;;;11.10;;
64907;SDS011;69061;52.236;5.188;2023-05-10T14:00:10;19.42;;;11.25;;
64907;SDS011;69061;52.236;5.188;2023-05-10T14:02:37;18.58;;;11.88;;
64907;SDS011;69061;52.236;5.188;2023-05-10T14:05:04;19.85;;;11.73;;
64907;SDS011;69061;52.236;5.188;2023-05-10T14:07:31;16.27;;;9.93;;
64907;SDS011;69061;52.236;5.188;2023-05-10T14:09:57;14.77;;;8.95;;
64907;SDS011;69061;52.236;5.188;2023-05-10T14:12:24;15.27;;;9.70;;
64907;SDS011;69061;52.236;5.188;2023-05-10T14:14:51;15.13;;;8.65;;
64907;SDS011;69061;52.236;5.188;2023-05-10T14:17:19;17.70;;;9.48;;
64907;SDS011;69061;52.236;5.188;2023-05-10T14:19:45;17.25;;;9.55;;
64907;SDS011;69061;52.236;5.188;2023-05-10T14:22:12;18.67;;;9.40;;
64907;SDS011;69061;52.236;5.188;2023-05-10T14:24:38;19.15;;;10.48;;
64907;SDS011;69061;52.236;5.188;2023-05-10T14:27:05;17.33;;;9.65;;
64907;SDS011;69061;52.236;5.188;2023-05-10T14:29:32;16.25;;;9.93;;
64907;SDS011;69061;52.236;5.188;2023-05-10T14:31:59;16.00;;;9.93;;
64907;SDS011;69061;52.236;5.188;2023-05-10T14:34:27;17.33;;;9.75;;
64907;SDS011;69061;52.236;5.188;2023-05-10T14:36:53;17.05;;;9.02;;
64907;SDS011;69061;52.236;5.188;2023-05-10T14:39:20;12.18;;;8.15;;